createdAt,value
2018-12-11T00:00:36.885Z,98662.80
2018-12-11T00:03:06.161Z,98662.43
2018-12-11T00:05:35.399Z,98659.34
2018-12-11T00:08:04.883Z,98659.11
2018-12-11T00:10:34.084Z,98660.70
2018-12-11T00:13:03.216Z,98663.46
2018-12-11T00:15:33.065Z,98664.85
2018-12-11T00:18:02.385Z,98666.44
2018-12-11T00:20:31.630Z,98669.64
2018-12-11T00:23:01.101Z,98669.88
2018-12-11T00:25:33.143Z,98671.83
2018-12-11T00:28:02.508Z,98671.70
2018-12-11T00:30:32.256Z,98671.47
2018-12-11T00:33:01.418Z,98674.77
2018-12-11T00:35:30.628Z,98670.58
2018-12-11T00:37:59.888Z,98669.09
2018-12-11T00:40:29.079Z,98677.17
2018-12-11T00:42:58.244Z,98675.59
2018-12-11T00:45:27.866Z,98674.44
2018-12-11T00:47:57.065Z,98674.90
2018-12-11T00:50:26.873Z,98673.52
2018-12-11T00:52:55.985Z,98668.16
2018-12-11T00:55:25.578Z,98676.72
2018-12-11T00:57:54.672Z,98669.19
2018-12-11T01:00:24.030Z,98667.14
2018-12-11T01:02:53.211Z,98665.09
2018-12-11T01:05:22.472Z,98658.69
2018-12-11T01:07:51.617Z,98664.63
2018-12-11T01:10:20.940Z,98666.67
2018-12-11T01:12:50.343Z,98668.16
2018-12-11T01:15:19.481Z,98664.86
2018-12-11T01:17:48.580Z,98662.45
2018-12-11T01:20:17.741Z,98660.53
2018-12-11T01:22:46.924Z,98665.19
2018-12-11T01:25:16.585Z,98663.38
2018-12-11T01:27:45.817Z,98665.66
2018-12-11T01:30:15.030Z,98666.58
2018-12-11T01:32:44.177Z,98670.91
2018-12-11T01:35:13.440Z,98664.63
2018-12-11T01:37:42.563Z,98666.80
2018-12-11T01:40:11.797Z,98660.77
2018-12-11T01:42:41.022Z,98659.37
2018-12-11T01:45:10.212Z,98663.60
2018-12-11T01:47:39.432Z,98660.63
2018-12-11T01:50:08.801Z,98667.47
2018-12-11T01:52:38.014Z,98660.98
2018-12-11T01:55:07.236Z,98657.09
2018-12-11T01:57:36.484Z,98656.52
2018-12-11T02:00:08.391Z,98664.61
2018-12-11T02:02:37.997Z,98673.63
2018-12-11T02:05:07.395Z,98663.11
2018-12-11T02:07:36.633Z,98659.92
2018-12-11T02:10:06.077Z,98663.80
2018-12-11T02:12:35.239Z,98659.55
2018-12-11T02:15:06.596Z,98657.84
2018-12-11T02:17:35.840Z,98658.53
2018-12-11T02:20:06.246Z,98662.08
2018-12-11T02:22:35.627Z,98657.41
2018-12-11T02:25:05.204Z,98658.30
2018-12-11T02:27:39.937Z,98651.31
2018-12-11T02:30:09.253Z,98659.54
2018-12-11T02:32:38.584Z,98662.97
2018-12-11T02:35:09.479Z,98659.06
2018-12-11T02:37:38.569Z,98651.54
2018-12-11T02:40:09.197Z,98655.10
2018-12-11T02:42:38.377Z,98655.17
2018-12-11T02:45:07.732Z,98652.20
2018-12-11T02:47:36.876Z,98649.69
2018-12-11T02:50:08.879Z,98651.19
2018-12-11T02:52:38.085Z,98651.75
2018-12-11T02:55:07.345Z,98645.95
2018-12-11T02:57:36.481Z,98656.23
2018-12-11T03:00:08.575Z,98658.98
2018-12-11T03:02:37.691Z,98654.65
2018-12-11T03:05:07.001Z,98648.39
2018-12-11T03:07:36.613Z,98652.86
2018-12-11T03:10:07.176Z,98656.86
2018-12-11T03:12:36.511Z,98664.16
2018-12-11T03:15:06.915Z,98665.30
2018-12-11T03:17:36.112Z,98664.83
2018-12-11T03:20:06.141Z,98661.20
2018-12-11T03:22:35.360Z,98662.66
2018-12-11T03:25:04.713Z,98666.42
2018-12-11T03:27:37.516Z,98669.06
2018-12-11T03:30:06.873Z,98667.80
2018-12-11T03:32:36.103Z,98669.63
2018-12-11T03:35:05.752Z,98664.97
2018-12-11T03:37:35.552Z,98662.89
2018-12-11T03:40:05.552Z,98671.12
2018-12-11T03:42:34.650Z,98676.38
2018-12-11T03:45:04.244Z,98677.38
2018-12-11T03:50:15.110Z,98679.21
2018-12-11T03:52:44.222Z,98674.55
2018-12-11T03:55:13.751Z,98679.69
2018-12-11T03:57:42.857Z,98683.44
2018-12-11T04:00:12.234Z,98687.11
2018-12-11T04:02:41.387Z,98683.21
2018-12-11T04:05:10.777Z,98673.63
2018-12-11T04:07:39.927Z,98664.83
2018-12-11T04:10:10.161Z,98672.70
2018-12-11T04:12:39.461Z,98675.57
2018-12-11T04:15:09.615Z,98674.77
2018-12-11T04:17:39.181Z,98670.98
2018-12-11T04:20:09.013Z,98666.19
2018-12-11T04:22:38.249Z,98669.48
2018-12-11T04:25:07.964Z,98668.23
2018-12-11T04:27:37.238Z,98664.35
2018-12-11T04:30:09.444Z,98662.20
2018-12-11T04:32:38.590Z,98657.42
2018-12-11T04:35:08.420Z,98662.46
2018-12-11T04:37:37.922Z,98666.44
2018-12-11T04:40:07.641Z,98665.55
2018-12-11T04:42:37.642Z,98669.19
2018-12-11T04:45:07.660Z,98668.86
2018-12-11T04:47:36.892Z,98673.88
2018-12-11T04:50:06.557Z,98675.47
2018-12-11T04:52:35.927Z,98680.02
2018-12-11T04:55:06.237Z,98688.80
2018-12-11T04:57:35.386Z,98681.64
2018-12-11T05:00:05.364Z,98681.30
2018-12-11T05:02:34.514Z,98680.70
2018-12-11T05:05:04.008Z,98683.58
2018-12-11T05:07:33.283Z,98685.95
2018-12-11T05:10:02.421Z,98685.50
2018-12-11T05:12:31.635Z,98679.36
2018-12-11T05:15:00.848Z,98674.80
2018-12-11T05:17:30.459Z,98673.88
2018-12-11T05:19:59.639Z,98670.11
2018-12-11T05:22:28.814Z,98670.20
2018-12-11T05:24:57.969Z,98661.55
2018-12-11T05:27:27.105Z,98666.91
2018-12-11T05:29:56.244Z,98667.13
2018-12-11T05:32:25.416Z,98669.17
2018-12-11T05:34:54.564Z,98669.84
2018-12-11T05:37:24.760Z,98678.18
2018-12-11T05:39:53.925Z,98683.45
2018-12-11T05:42:23.069Z,98677.52
2018-12-11T05:44:52.224Z,98676.95
2018-12-11T05:47:21.427Z,98680.15
2018-12-11T05:49:50.692Z,98682.98
2018-12-11T05:52:20.016Z,98684.84
2018-12-11T05:54:49.439Z,98684.15
2018-12-11T05:57:19.183Z,98679.23
2018-12-11T05:59:48.376Z,98674.66
2018-12-11T06:02:17.564Z,98672.39
2018-12-11T06:04:46.772Z,98683.34
2018-12-11T06:07:15.903Z,98675.13
2018-12-11T06:09:45.208Z,98677.07
2018-12-11T06:12:17.415Z,98682.66
2018-12-11T06:14:46.626Z,98680.04
2018-12-11T06:17:15.873Z,98680.94
2018-12-11T06:19:45.099Z,98683.44
2018-12-11T06:22:14.292Z,98679.80
2018-12-11T06:24:43.518Z,98686.64
2018-12-11T06:27:12.747Z,98689.60
2018-12-11T06:29:42.585Z,98690.48
2018-12-11T06:32:11.789Z,98691.53
2018-12-11T06:34:40.960Z,98688.11
2018-12-11T06:37:10.112Z,98696.68
2018-12-11T06:39:39.684Z,98696.66
2018-12-11T06:42:08.968Z,98696.76
2018-12-11T06:44:38.100Z,98702.62
2018-12-11T06:47:07.292Z,98701.11
2018-12-11T06:49:36.991Z,98698.48
2018-12-11T06:52:06.288Z,98704.98
2018-12-11T06:54:35.735Z,98707.16
2018-12-11T06:57:05.092Z,98714.00
2018-12-11T06:59:34.205Z,98712.52
2018-12-11T07:02:03.428Z,98709.19
2018-12-11T07:04:33.459Z,98710.11
2018-12-11T07:07:02.574Z,98712.38
2018-12-11T07:09:32.211Z,98713.19
2018-12-11T07:12:01.361Z,98712.05
2018-12-11T07:14:30.512Z,98715.25
2018-12-11T07:16:59.636Z,98712.95
2018-12-11T07:19:28.759Z,98712.05
2018-12-11T07:21:57.965Z,98721.98
2018-12-11T07:24:27.620Z,98716.77
2018-12-11T07:26:56.852Z,98716.52
2018-12-11T07:29:26.093Z,98716.98
2018-12-11T07:31:56.410Z,98720.42
2018-12-11T07:34:25.636Z,98730.56
2018-12-11T07:36:54.884Z,98723.00
2018-12-11T07:39:24.007Z,98725.97
2018-12-11T07:41:53.672Z,98730.20
2018-12-11T07:44:22.898Z,98729.40
2018-12-11T07:46:52.292Z,98727.46
2018-12-11T07:49:21.889Z,98731.22
2018-12-11T07:51:51.175Z,98733.63
2018-12-11T07:54:20.378Z,98731.22
2018-12-11T07:56:49.527Z,98737.23
2018-12-11T07:59:19.108Z,98733.13
2018-12-11T08:01:48.375Z,98736.63
2018-12-11T08:04:17.593Z,98732.05
2018-12-11T08:06:46.720Z,98729.45
2018-12-11T08:09:16.261Z,98727.45
2018-12-11T08:11:45.470Z,98735.00
2018-12-11T08:14:14.630Z,98729.99
2018-12-11T08:16:44.445Z,98732.84
2018-12-11T08:19:13.716Z,98733.60
2018-12-11T08:21:42.936Z,98731.72
2018-12-11T08:24:12.468Z,98731.23
2018-12-11T08:26:41.616Z,98724.20
2018-12-11T08:29:10.903Z,98731.48
2018-12-11T08:31:40.095Z,98729.34
2018-12-11T08:34:09.232Z,98724.52
2018-12-11T08:36:38.344Z,98734.38
2018-12-11T08:39:08.147Z,98735.72
2018-12-11T08:41:37.756Z,98728.61
2018-12-11T08:44:06.888Z,98730.37
2018-12-11T08:46:36.110Z,98723.23
2018-12-11T08:49:05.333Z,98722.96
2018-12-11T08:51:34.552Z,98723.66
2018-12-11T08:54:03.693Z,98723.16
2018-12-11T08:56:32.954Z,98728.37
2018-12-11T08:59:06.577Z,98732.94
2018-12-11T09:01:33.253Z,98736.83
2018-12-11T09:04:02.411Z,98744.30
2018-12-11T09:06:31.565Z,98741.06
2018-12-11T09:09:01.649Z,98746.02
2018-12-11T09:11:30.831Z,98742.46
2018-12-11T09:14:00.111Z,98744.98
2018-12-11T09:16:29.316Z,98743.59
2018-12-11T09:18:58.458Z,98744.70
2018-12-11T09:21:27.605Z,98747.01
2018-12-11T09:23:57.377Z,98746.33
2018-12-11T09:26:26.612Z,98747.22
2018-12-11T09:28:56.176Z,98747.64
2018-12-11T09:31:25.324Z,98739.49
2018-12-11T09:33:54.489Z,98752.92
2018-12-11T09:36:23.727Z,98748.27
2018-12-11T09:38:53.023Z,98744.67
2018-12-11T09:41:22.144Z,98745.72
2018-12-11T09:43:51.301Z,98743.12
2018-12-11T09:46:20.644Z,98739.33
2018-12-11T09:48:49.807Z,98734.88
2018-12-11T09:51:19.060Z,98728.69
2018-12-11T09:53:48.224Z,98732.80
2018-12-11T09:56:18.171Z,98734.98
2018-12-11T09:58:47.393Z,98729.60
2018-12-11T10:01:16.644Z,98731.94
2018-12-11T10:03:45.829Z,98736.39
2018-12-11T10:06:15.051Z,98734.29
2018-12-11T10:08:44.265Z,98732.20
2018-12-11T10:11:13.633Z,98734.31
2018-12-11T10:13:42.875Z,98731.68
2018-12-11T10:16:12.039Z,98724.89
2018-12-11T10:18:41.622Z,98724.52
2018-12-11T10:21:10.871Z,98722.95
2018-12-11T10:23:40.602Z,98727.00
2018-12-11T10:26:09.962Z,98725.38
2018-12-11T10:28:39.932Z,98722.33
2018-12-11T10:31:09.138Z,98724.96
2018-12-11T10:33:38.337Z,98723.59
2018-12-11T10:36:07.860Z,98720.13
2018-12-11T10:38:37.606Z,98723.44
2018-12-11T10:41:06.923Z,98722.91
2018-12-11T10:43:36.109Z,98717.48
2018-12-11T10:46:05.876Z,98711.71
2018-12-11T10:48:35.107Z,98718.05
2018-12-11T10:51:04.376Z,98707.03
2018-12-11T10:53:33.528Z,98711.39
2018-12-11T10:56:02.684Z,98704.43
2018-12-11T10:58:32.033Z,98695.16
2018-12-11T11:01:06.578Z,98694.84
2018-12-11T11:03:35.840Z,98698.97
2018-12-11T11:06:05.210Z,98699.25
2018-12-11T11:08:34.384Z,98693.87
2018-12-11T11:11:03.642Z,98697.52
2018-12-11T11:13:32.877Z,98701.16
2018-12-11T11:16:02.189Z,98695.09
2018-12-11T11:18:31.969Z,98700.91
2018-12-11T11:21:01.617Z,98693.67
2018-12-11T11:23:32.564Z,98693.93
2018-12-11T11:26:01.753Z,98689.56
2018-12-11T11:28:30.877Z,98683.97
2018-12-11T11:31:00.660Z,98685.58
2018-12-11T11:33:29.943Z,98691.77
2018-12-11T11:35:59.216Z,98685.41
2018-12-11T11:38:28.710Z,98685.30
2018-12-11T11:40:58.392Z,98684.30
2018-12-11T11:43:27.535Z,98684.83
2018-12-11T11:45:56.767Z,98687.94
2018-12-11T11:48:25.900Z,98681.63
2018-12-11T11:50:55.242Z,98683.16
2018-12-11T11:53:24.683Z,98684.68
2018-12-11T11:55:54.008Z,98685.44
2018-12-11T11:58:23.711Z,98682.77
2018-12-11T12:00:53.517Z,98687.31
2018-12-11T12:03:22.695Z,98681.87
2018-12-11T12:05:51.980Z,98669.38
2018-12-11T12:08:21.664Z,98673.69
2018-12-11T12:10:50.894Z,98673.96
2018-12-11T12:13:20.094Z,98673.77
2018-12-11T12:15:50.377Z,98673.28
2018-12-11T12:18:19.616Z,98671.86
2018-12-11T12:20:48.835Z,98669.77
2018-12-11T12:23:18.108Z,98674.04
2018-12-11T12:25:47.371Z,98674.22
2018-12-11T12:28:16.558Z,98674.30
2018-12-11T12:33:25.825Z,98666.84
2018-12-11T12:35:55.034Z,98660.67
2018-12-11T12:38:24.204Z,98657.95
2018-12-11T12:40:53.449Z,98660.23
2018-12-11T12:43:22.763Z,98661.08
2018-12-11T12:45:52.797Z,98663.41
2018-12-11T12:48:22.178Z,98657.09
2018-12-11T12:50:51.393Z,98653.33
2018-12-11T12:53:20.627Z,98650.98
2018-12-11T12:55:49.821Z,98655.19
2018-12-11T12:58:19.812Z,98652.25
2018-12-11T13:00:49.368Z,98651.53
2018-12-11T13:03:18.988Z,98646.09
2018-12-11T13:05:48.176Z,98650.48
2018-12-11T13:08:17.337Z,98645.09
2018-12-11T13:10:46.509Z,98649.77
2018-12-11T13:13:15.649Z,98649.10
2018-12-11T13:15:44.942Z,98644.50
2018-12-11T13:18:14.621Z,98642.85
2018-12-11T13:20:43.848Z,98646.38
2018-12-11T13:23:13.083Z,98646.28
2018-12-11T13:25:42.300Z,98650.58
2018-12-11T13:28:11.611Z,98646.32
2018-12-11T13:30:40.997Z,98647.16
2018-12-11T13:33:10.225Z,98649.59
2018-12-11T13:35:39.629Z,98647.33
2018-12-11T13:38:08.908Z,98660.75
2018-12-11T13:40:38.705Z,98651.00
2018-12-11T13:43:08.596Z,98660.92
2018-12-11T13:45:37.793Z,98662.44
2018-12-11T13:48:08.388Z,98664.20
2018-12-11T13:50:37.674Z,98658.59
2018-12-11T13:53:06.800Z,98663.23
2018-12-11T13:55:35.968Z,98662.25
2018-12-11T13:58:05.136Z,98663.59
2018-12-11T14:00:34.424Z,98663.69
2018-12-11T14:03:04.012Z,98664.12
2018-12-11T14:05:33.266Z,98672.17
2018-12-11T14:08:03.029Z,98667.48
2018-12-11T14:10:32.736Z,98665.38
2018-12-11T14:13:01.861Z,98659.94
2018-12-11T14:15:31.028Z,98665.67
2018-12-11T14:18:01.189Z,98663.88
2018-12-11T14:20:31.101Z,98664.11
2018-12-11T14:23:00.385Z,98664.55
2018-12-11T14:25:29.644Z,98663.02
2018-12-11T14:27:59.019Z,98659.96
2018-12-11T14:30:28.193Z,98660.03
2018-12-11T14:32:58.144Z,98654.24
2018-12-11T14:35:27.819Z,98657.30
2018-12-11T14:37:57.015Z,98650.73
2018-12-11T14:40:26.200Z,98656.65
2018-12-11T14:42:55.375Z,98656.58
2018-12-11T14:45:25.339Z,98654.64
2018-12-11T14:47:54.981Z,98658.07
2018-12-11T14:50:24.175Z,98658.07
2018-12-11T14:52:54.006Z,98655.55
2018-12-11T14:55:23.249Z,98657.81
2018-12-11T14:57:52.456Z,98659.66
2018-12-11T15:00:22.149Z,98651.89
2018-12-11T15:02:51.496Z,98661.84
2018-12-11T15:05:20.868Z,98665.16
2018-12-11T15:07:50.116Z,98659.08
2018-12-11T15:10:19.364Z,98655.62
2018-12-11T15:12:49.189Z,98662.53
2018-12-11T15:15:18.317Z,98657.75
2018-12-11T15:17:47.460Z,98657.19
2018-12-11T15:20:16.636Z,98659.27
2018-12-11T15:22:46.305Z,98654.92
2018-12-11T15:25:16.970Z,98659.95
2018-12-11T15:27:46.136Z,98659.42
2018-12-11T15:30:15.443Z,98655.77
2018-12-11T15:32:44.601Z,98655.58
2018-12-11T15:35:14.173Z,98653.71
2018-12-11T15:37:43.467Z,98654.22
2018-12-11T15:40:13.309Z,98655.95
2018-12-11T15:42:42.556Z,98651.59
2018-12-11T15:45:11.968Z,98649.70
2018-12-11T15:47:41.579Z,98655.05
2018-12-11T15:50:10.976Z,98649.81
2018-12-11T15:52:40.572Z,98650.78
2018-12-11T15:55:10.372Z,98657.66
2018-12-11T15:57:39.585Z,98659.16
2018-12-11T16:00:11.509Z,98653.13
2018-12-11T16:02:40.697Z,98661.03
2018-12-11T16:05:10.297Z,98662.77
2018-12-11T16:07:39.540Z,98668.33
2018-12-11T16:10:09.259Z,98666.03
2018-12-11T16:12:40.436Z,98666.64
2018-12-11T16:15:09.659Z,98667.94
2018-12-11T16:17:38.834Z,98661.67
2018-12-11T16:20:08.169Z,98660.48
2018-12-11T16:22:37.353Z,98662.45
2018-12-11T16:25:07.584Z,98658.06
2018-12-11T16:27:37.190Z,98668.77
2018-12-11T16:30:06.988Z,98665.50
2018-12-11T16:32:36.303Z,98661.92
2018-12-11T16:35:06.264Z,98668.53
2018-12-11T16:37:36.081Z,98662.81
2018-12-11T16:40:06.281Z,98670.52
2018-12-11T16:42:35.507Z,98674.33
2018-12-11T16:45:06.085Z,98672.06
2018-12-11T16:47:35.275Z,98672.72
2018-12-11T16:50:04.940Z,98679.82
2018-12-11T16:52:34.192Z,98682.66
2018-12-11T16:55:04.083Z,98682.89
2018-12-11T16:57:34.446Z,98684.01
2018-12-11T17:00:03.909Z,98684.46
2018-12-11T17:02:33.361Z,98687.53
2018-12-11T17:05:02.544Z,98690.40
2018-12-11T17:07:31.860Z,98684.61
2018-12-11T17:10:01.693Z,98684.15
2018-12-11T17:12:31.639Z,98690.06
2018-12-11T17:15:02.366Z,98694.88
2018-12-11T17:17:32.252Z,98688.34
2018-12-11T17:20:01.440Z,98699.16
2018-12-11T17:22:30.572Z,98692.94
2018-12-11T17:24:59.777Z,98691.89
2018-12-11T17:27:28.891Z,98697.13
2018-12-11T17:29:58.021Z,98702.71
2018-12-11T17:32:27.140Z,98699.53
2018-12-11T17:34:56.920Z,98702.27
2018-12-11T17:37:26.043Z,98700.02
2018-12-11T17:39:55.673Z,98699.23
2018-12-11T17:42:24.931Z,98707.21
2018-12-11T17:44:54.159Z,98708.88
2018-12-11T17:47:23.812Z,98707.09
2018-12-11T17:49:53.028Z,98708.66
2018-12-11T17:52:22.248Z,98710.61
2018-12-11T17:54:51.391Z,98710.05
2018-12-11T17:57:20.511Z,98712.23
2018-12-11T17:59:49.881Z,98712.98
2018-12-11T18:05:08.948Z,98714.27
2018-12-11T18:07:38.146Z,98714.55
2018-12-11T18:10:08.684Z,98706.79
2018-12-11T18:12:37.804Z,98705.31
2018-12-11T18:15:07.210Z,98710.01
2018-12-11T18:17:36.424Z,98709.33
2018-12-11T18:20:06.843Z,98711.47
2018-12-11T18:22:36.748Z,98710.34
2018-12-11T18:25:06.601Z,98709.88
2018-12-11T18:27:35.852Z,98705.42
2018-12-11T18:30:07.052Z,98718.00
2018-12-11T18:32:36.473Z,98713.38
2018-12-11T18:37:48.811Z,98715.37
2018-12-11T18:40:18.492Z,98717.35
2018-12-11T18:42:47.616Z,98718.23
2018-12-11T18:45:16.815Z,98722.91
2018-12-11T18:47:49.972Z,98718.57
2018-12-11T18:50:21.413Z,98718.33
2018-12-11T18:52:48.388Z,98716.05
2018-12-11T18:55:17.747Z,98711.82
2018-12-11T18:57:46.932Z,98712.85
2018-12-11T19:00:16.922Z,98713.21
2018-12-11T19:02:46.290Z,98714.23
2018-12-11T19:05:15.514Z,98714.75
2018-12-11T19:07:44.691Z,98717.71
2018-12-11T19:10:13.971Z,98717.71
2018-12-11T19:12:43.124Z,98715.06
2018-12-11T19:15:12.336Z,98718.03
2018-12-11T19:17:41.580Z,98717.84
2018-12-11T19:20:10.789Z,98718.33
2018-12-11T19:22:39.904Z,98720.19
2018-12-11T19:25:15.088Z,98724.44
2018-12-11T19:27:44.276Z,98719.50
2018-12-11T19:30:13.620Z,98719.86
2018-12-11T19:32:42.779Z,98715.77
2018-12-11T19:35:12.094Z,98718.67
2018-12-11T19:37:41.232Z,98716.44
2018-12-11T19:40:10.953Z,98715.75
2018-12-11T19:42:41.393Z,98718.83
2018-12-11T19:45:10.743Z,98722.69
2018-12-11T19:47:39.845Z,98725.41
2018-12-11T19:50:09.527Z,98715.03
2018-12-11T19:52:39.920Z,98719.11
2018-12-11T19:55:10.323Z,98716.98
2018-12-11T19:57:39.524Z,98712.06
2018-12-11T20:00:09.736Z,98703.50
2018-12-11T20:02:38.916Z,98713.22
2018-12-11T20:05:08.252Z,98712.41
2018-12-11T20:07:38.485Z,98715.38
2018-12-11T20:10:13.104Z,98712.09
2018-12-11T20:12:42.337Z,98714.83
2018-12-11T20:15:11.513Z,98710.04
2018-12-11T20:17:40.720Z,98708.64
2018-12-11T20:23:00.987Z,98704.20
2018-12-11T20:25:30.204Z,98712.37
2018-12-11T20:27:59.994Z,98706.25
2018-12-11T20:30:29.225Z,98704.63
2018-12-11T20:33:01.966Z,98704.63
2018-12-11T20:35:31.572Z,98700.21
2018-12-11T20:38:00.792Z,98704.20
2018-12-11T20:40:30.598Z,98704.98
2018-12-11T20:43:01.336Z,98695.61
2018-12-11T20:45:30.572Z,98698.56
2018-12-11T20:47:59.808Z,98701.55
2018-12-11T20:50:28.964Z,98697.08
2018-12-11T20:52:58.119Z,98696.50
2018-12-11T20:55:27.315Z,98703.79
2018-12-11T20:57:56.448Z,98700.41
2018-12-11T21:00:27.714Z,98702.12
2018-12-11T21:02:57.368Z,98699.42
2018-12-11T21:05:26.529Z,98701.46
2018-12-11T21:07:55.714Z,98705.00
2018-12-11T21:10:24.892Z,98706.81
2018-12-11T21:12:54.135Z,98708.31
2018-12-11T21:15:23.803Z,98707.30
2018-12-11T21:17:52.980Z,98695.91
2018-12-11T21:20:22.134Z,98694.98
2018-12-11T21:22:51.340Z,98698.50
2018-12-11T21:25:20.952Z,98698.91
2018-12-11T21:27:50.180Z,98695.27
2018-12-11T21:30:20.147Z,98693.59
2018-12-11T21:32:49.316Z,98683.80
2018-12-11T21:35:19.018Z,98678.58
2018-12-11T21:37:48.164Z,98685.37
2018-12-11T21:40:17.361Z,98678.16
2018-12-11T21:42:46.501Z,98685.21
2018-12-11T21:45:16.333Z,98690.67
2018-12-11T21:47:45.496Z,98690.08
2018-12-11T21:50:14.948Z,98688.49
2018-12-11T21:52:44.118Z,98685.70
2018-12-11T21:55:14.024Z,98692.00
2018-12-11T21:57:43.185Z,98691.13
2018-12-11T22:00:12.761Z,98685.33
2018-12-11T22:02:42.409Z,98690.03
2018-12-11T22:05:11.686Z,98692.91
2018-12-11T22:07:40.911Z,98681.14
2018-12-11T22:10:10.240Z,98692.44
2018-12-11T22:12:42.376Z,98700.19
2018-12-11T22:15:12.338Z,98695.24
2018-12-11T22:17:42.067Z,98698.48
2018-12-11T22:20:11.412Z,98703.33
2018-12-11T22:22:40.836Z,98704.84
2018-12-11T22:25:10.151Z,98700.83
2018-12-11T22:27:39.387Z,98711.25
2018-12-11T22:30:08.771Z,98712.75
2018-12-11T22:32:38.892Z,98707.55
2018-12-11T22:35:08.206Z,98714.08
2018-12-11T22:37:37.378Z,98713.44
2018-12-11T22:40:07.967Z,98713.55
2018-12-11T22:42:37.263Z,98715.33
2018-12-11T22:45:07.070Z,98709.83
2018-12-11T22:47:36.239Z,98709.63
2018-12-11T22:50:06.226Z,98707.83
2018-12-11T22:52:35.909Z,98707.04
2018-12-11T22:55:05.692Z,98703.10
2018-12-11T22:57:34.858Z,98704.27
2018-12-11T23:00:06.474Z,98700.63
2018-12-11T23:02:35.771Z,98707.72
2018-12-11T23:05:05.815Z,98710.34
2018-12-11T23:07:35.067Z,98708.48
2018-12-11T23:10:04.513Z,98709.36
2018-12-11T23:12:33.733Z,98712.30
2018-12-11T23:15:02.911Z,98714.22
2018-12-11T23:17:32.261Z,98715.27
2018-12-11T23:20:01.425Z,98717.78
2018-12-11T23:22:30.536Z,98719.66
2018-12-11T23:24:59.912Z,98722.48
2018-12-11T23:27:29.110Z,98722.37
2018-12-11T23:29:58.263Z,98722.00
2018-12-11T23:32:27.487Z,98723.54
2018-12-11T23:34:57.557Z,98718.67
2018-12-11T23:37:26.657Z,98716.14
2018-12-11T23:39:55.827Z,98717.03
2018-12-11T23:42:25.129Z,98713.11
2018-12-11T23:44:54.338Z,98716.65
2018-12-11T23:47:23.552Z,98709.27
2018-12-11T23:49:52.691Z,98708.88
2018-12-11T23:52:21.892Z,98710.56
2018-12-11T23:54:51.016Z,98703.41
2018-12-11T23:57:20.168Z,98701.39
2018-12-11T23:59:49.796Z,98699.72
